createdAt,value
2022-08-05T00:01:36.196Z,7.60
2022-08-05T00:04:16.443Z,8.02
2022-08-05T00:06:44.109Z,9.90
2022-08-05T00:09:12.728Z,9.00
2022-08-05T00:11:48.293Z,8.27
2022-08-05T00:14:17.194Z,11.40
2022-08-05T00:16:52.487Z,7.40
2022-08-05T00:19:21.600Z,8.90
2022-08-05T00:21:50.417Z,8.63
2022-08-05T00:24:19.274Z,8.07
2022-08-05T00:26:53.575Z,8.07
2022-08-05T00:29:22.382Z,8.70
2022-08-05T00:32:10.483Z,9.43
2022-08-05T00:34:55.924Z,7.50
2022-08-05T00:37:26.285Z,7.38
2022-08-05T00:39:58.012Z,10.23
2022-08-05T00:42:35.310Z,10.03
2022-08-05T00:45:08.587Z,8.65
2022-08-05T00:47:57.403Z,11.82
2022-08-05T00:50:28.362Z,8.60
2022-08-05T00:52:56.005Z,8.23
2022-08-05T00:55:42.103Z,8.38
2022-08-05T00:58:12.147Z,8.90
2022-08-05T01:00:42.061Z,12.60
2022-08-05T01:03:10.624Z,9.18
2022-08-05T01:05:50.146Z,7.18
2022-08-05T01:08:42.157Z,10.40
2022-08-05T01:11:10.564Z,8.95
2022-08-05T01:13:58.890Z,6.50
2022-08-05T01:16:30.247Z,10.55
2022-08-05T01:19:00.842Z,7.72
2022-08-05T01:21:50.685Z,11.00
2022-08-05T01:24:27.101Z,7.37
2022-08-05T01:27:00.749Z,10.68
2022-08-05T01:29:48.426Z,10.35
2022-08-05T01:32:19.608Z,9.50
2022-08-05T01:34:49.270Z,9.93
2022-08-05T01:37:24.715Z,9.00
2022-08-05T01:39:54.686Z,10.60
2022-08-05T01:42:27.514Z,9.32
2022-08-05T01:44:57.104Z,8.07
2022-08-05T01:47:38.779Z,8.85
2022-08-05T01:50:15.472Z,9.23
2022-08-05T01:52:44.878Z,10.80
2022-08-05T01:55:19.054Z,9.25
2022-08-05T01:58:12.249Z,7.65
2022-08-05T02:00:39.349Z,8.00
2022-08-05T02:03:24.201Z,9.95
2022-08-05T02:05:59.872Z,7.70
2022-08-05T02:08:31.137Z,9.23
2022-08-05T02:11:00.793Z,10.23
2022-08-05T02:13:48.623Z,9.45
2022-08-05T02:16:22.429Z,7.60
2022-08-05T02:18:54.224Z,9.98
2022-08-05T02:21:25.989Z,9.52
2022-08-05T02:23:57.432Z,11.07
2022-08-05T02:26:26.822Z,10.10
2022-08-05T02:28:55.836Z,8.02
2022-08-05T02:31:28.956Z,12.50
2022-08-05T02:34:04.426Z,11.48
2022-08-05T02:36:34.663Z,9.75
2022-08-05T02:39:03.921Z,9.10
2022-08-05T02:41:58.125Z,13.27
2022-08-05T02:44:25.973Z,11.95
2022-08-05T02:47:00.216Z,10.55
2022-08-05T02:53:40.958Z,10.07
2022-08-05T02:56:09.373Z,9.67
2022-08-05T02:58:37.584Z,8.75
2022-08-05T03:01:14.368Z,8.20
2022-08-05T03:04:02.238Z,10.30
2022-08-05T03:06:55.285Z,7.03
2022-08-05T03:09:26.971Z,8.65
2022-08-05T03:12:04.479Z,7.85
2022-08-05T03:14:32.000Z,9.43
2022-08-05T03:16:59.538Z,7.10
2022-08-05T03:19:34.488Z,12.57
2022-08-05T03:22:05.153Z,12.63
2022-08-05T03:24:46.909Z,9.33
2022-08-05T03:27:15.897Z,8.13
2022-08-05T03:29:45.283Z,12.30
2022-08-05T03:32:31.490Z,14.38
2022-08-05T03:35:00.730Z,11.20
2022-08-05T03:37:28.496Z,10.60
2022-08-05T03:40:01.254Z,14.27
2022-08-05T04:38:03.012Z,14.35
2022-08-05T06:04:27.163Z,15.95
2022-08-05T08:45:26.724Z,23.23
2022-08-05T08:48:12.608Z,22.33
2022-08-05T08:51:03.599Z,21.98
2022-08-05T08:53:35.800Z,21.83
2022-08-05T08:56:06.081Z,26.20
2022-08-05T08:58:43.019Z,19.77
2022-08-05T09:01:15.615Z,20.33
2022-08-05T09:03:46.338Z,21.08
2022-08-05T09:06:18.591Z,21.35
2022-08-05T09:08:47.675Z,22.38
2022-08-05T09:11:16.055Z,23.30
2022-08-05T09:14:09.610Z,22.45
2022-08-05T09:16:33.955Z,28.65
2022-08-05T09:19:06.936Z,33.78
2022-08-05T09:22:17.919Z,40.90
2022-08-05T09:24:22.415Z,38.15
2022-08-05T09:26:52.614Z,39.78
2022-08-05T09:29:20.557Z,43.30
2022-08-05T09:32:40.331Z,46.00
2022-08-05T09:34:52.544Z,39.42
2022-08-05T09:38:16.163Z,36.20
2022-08-05T09:40:08.874Z,35.67
2022-08-05T09:42:40.481Z,28.85
2022-08-05T09:45:17.657Z,29.50
2022-08-05T09:47:57.867Z,31.23
2022-08-05T09:50:37.966Z,32.67
2022-08-05T09:53:22.721Z,31.60
2022-08-05T09:56:04.830Z,31.35
2022-08-05T09:58:42.462Z,29.38
2022-08-05T10:01:15.706Z,29.13
2022-08-05T10:04:10.142Z,28.27
2022-08-05T10:06:40.367Z,24.92
2022-08-05T10:09:27.381Z,29.80
2022-08-05T10:11:56.328Z,29.70
2022-08-05T10:14:27.302Z,25.23
2022-08-05T10:16:58.886Z,26.50
2022-08-05T10:19:31.856Z,19.00
2022-08-05T10:22:29.985Z,16.42
2022-08-05T10:24:58.008Z,17.65
2022-08-05T10:27:26.319Z,17.30
2022-08-05T10:32:48.227Z,17.90
2022-08-05T10:33:02.274Z,18.10
2022-08-05T10:35:33.763Z,19.80
2022-08-05T10:48:34.502Z,20.42
2022-08-05T10:51:21.759Z,19.13
2022-08-05T10:53:54.487Z,19.45
2022-08-05T10:56:25.916Z,19.33
2022-08-05T10:59:07.273Z,18.17
2022-08-05T11:01:55.496Z,18.50
2022-08-05T11:04:31.770Z,18.52
2022-08-05T11:07:06.603Z,16.40
2022-08-05T11:09:46.444Z,19.45
2022-08-05T11:12:33.862Z,16.27
2022-08-05T11:15:11.722Z,15.88
2022-08-05T11:17:57.583Z,15.07
2022-08-05T11:20:37.518Z,11.95
2022-08-05T11:23:25.854Z,11.98
2022-08-05T11:26:08.773Z,14.70
2022-08-05T11:28:43.035Z,12.45
2022-08-05T11:31:57.972Z,9.80
2022-08-05T11:34:17.213Z,6.25
2022-08-05T11:36:52.777Z,4.55
2022-08-05T11:39:39.501Z,4.50
2022-08-05T11:42:18.546Z,3.60
2022-08-05T11:44:54.173Z,4.40
2022-08-05T11:47:23.241Z,4.50
2022-08-05T11:50:14.217Z,5.25
2022-08-05T11:52:43.902Z,3.55
2022-08-05T11:55:13.672Z,4.60
2022-08-05T11:58:10.453Z,5.10
2022-08-05T12:00:38.310Z,3.83
2022-08-05T12:03:16.740Z,5.83
2022-08-05T12:05:58.987Z,4.63
2022-08-05T12:08:27.569Z,5.07
2022-08-05T12:10:59.739Z,7.90
2022-08-05T12:13:49.650Z,5.95
2022-08-05T12:16:25.371Z,6.90
2022-08-05T12:18:54.497Z,5.80
2022-08-05T12:21:24.330Z,6.70
2022-08-05T12:23:56.610Z,4.90
2022-08-05T12:26:24.923Z,6.70
2022-08-05T12:28:55.381Z,8.53
2022-08-05T12:31:42.456Z,4.97
2022-08-05T12:34:20.730Z,4.37
2022-08-05T12:36:54.212Z,3.63
2022-08-05T12:39:28.043Z,4.20
2022-08-05T12:42:08.421Z,6.03
2022-08-05T12:44:38.748Z,3.67
2022-08-05T12:47:12.514Z,3.27
2022-08-05T12:50:03.353Z,5.00
2022-08-05T12:52:33.893Z,3.67
2022-08-05T12:55:16.895Z,5.00
2022-08-05T12:58:52.425Z,6.03
2022-08-05T13:02:01.084Z,4.70
2022-08-05T13:03:25.285Z,3.70
2022-08-05T13:06:01.021Z,4.17
2022-08-05T13:08:29.955Z,2.63
2022-08-05T13:11:00.461Z,6.00
2022-08-05T13:14:05.053Z,2.70
2022-08-05T13:16:24.990Z,5.77
2022-08-05T13:18:54.973Z,3.80
2022-08-05T13:21:23.205Z,3.43
2022-08-05T13:23:56.300Z,5.80
2022-08-05T13:26:30.077Z,3.20
2022-08-05T13:28:59.344Z,3.57
2022-08-05T13:31:33.870Z,4.03
2022-08-05T13:34:23.963Z,6.80
2022-08-05T13:36:58.532Z,3.53
2022-08-05T13:40:16.617Z,4.70
2022-08-05T13:42:15.767Z,3.63
2022-08-05T13:44:45.691Z,4.83
2022-08-05T13:47:36.006Z,3.40
2022-08-05T13:50:04.354Z,4.80
2022-08-05T13:52:35.639Z,4.80
2022-08-05T13:55:07.233Z,4.53
2022-08-05T13:57:48.960Z,4.67
2022-08-05T14:00:27.755Z,3.20
2022-08-05T14:02:57.457Z,3.83
2022-08-05T14:05:48.278Z,4.97
2022-08-05T14:08:21.169Z,4.40
2022-08-05T14:11:03.151Z,3.07
2022-08-05T14:13:42.825Z,6.97
2022-08-05T14:16:11.279Z,4.10
2022-08-05T14:18:40.760Z,3.73
2022-08-05T14:21:23.883Z,5.63
2022-08-05T14:23:56.172Z,6.20
2022-08-05T14:26:38.419Z,4.73
2022-08-05T14:29:15.698Z,3.63
2022-08-05T14:32:02.460Z,3.83
2022-08-05T14:34:35.521Z,4.33
2022-08-05T14:37:03.489Z,5.33
2022-08-05T14:39:49.560Z,4.90
2022-08-05T14:42:20.848Z,4.73
2022-08-05T14:44:49.377Z,5.73
2022-08-05T14:47:17.602Z,4.33
2022-08-05T14:50:17.471Z,3.70
2022-08-05T14:52:56.882Z,6.40
2022-08-05T14:55:26.222Z,4.60
2022-08-05T14:58:10.783Z,4.70
2022-08-05T15:00:59.553Z,4.80
2022-08-05T15:03:34.017Z,5.63
2022-08-05T15:06:15.072Z,5.50
2022-08-05T15:09:01.601Z,6.87
2022-08-05T15:11:52.580Z,5.53
2022-08-05T15:14:35.601Z,3.27
2022-08-05T15:17:09.654Z,5.30
2022-08-05T15:19:37.846Z,6.30
2022-08-05T15:22:08.789Z,5.33
2022-08-05T15:24:36.652Z,5.50
2022-08-05T15:27:09.102Z,7.77
2022-08-05T15:29:41.986Z,6.47
2022-08-05T15:32:11.590Z,7.03
2022-08-05T15:34:39.733Z,3.93
2022-08-05T15:37:24.388Z,3.77
2022-08-05T15:41:00.647Z,8.20
2022-08-05T15:42:55.903Z,4.30
2022-08-05T15:45:37.810Z,5.00
2022-08-05T15:48:07.029Z,4.10
2022-08-05T15:50:35.606Z,3.77
2022-08-05T15:53:06.369Z,5.70
2022-08-05T15:56:01.460Z,7.27
2022-08-05T15:58:25.324Z,5.57
2022-08-05T16:01:11.784Z,4.40
2022-08-05T16:03:42.154Z,5.07
2022-08-05T16:06:11.484Z,4.77
2022-08-05T16:08:40.696Z,4.00
2022-08-05T16:11:08.665Z,5.70
2022-08-05T16:13:36.250Z,5.83
2022-08-05T16:16:03.933Z,6.10
2022-08-05T16:18:32.673Z,6.33
2022-08-05T16:21:04.255Z,4.23
2022-08-05T16:23:32.878Z,5.53
2022-08-05T16:26:26.509Z,4.37
2022-08-05T16:28:55.059Z,4.63
2022-08-05T16:31:22.675Z,5.20
2022-08-05T16:33:52.109Z,3.90
2022-08-05T16:36:23.849Z,5.83
2022-08-05T16:38:54.948Z,4.10
2022-08-05T16:42:15.413Z,5.43
2022-08-05T16:44:12.993Z,3.57
2022-08-05T16:46:41.400Z,3.47
2022-08-05T16:49:23.966Z,4.47
2022-08-05T16:51:55.005Z,3.50
2022-08-05T16:54:30.301Z,4.87
2022-08-05T16:57:01.751Z,4.63
2022-08-05T16:59:30.624Z,3.97
2022-08-05T17:01:59.491Z,3.80
2022-08-05T17:04:28.715Z,5.10
2022-08-05T17:07:00.051Z,7.57
2022-08-05T17:09:28.602Z,4.03
2022-08-05T17:11:59.837Z,9.10
2022-08-05T17:14:36.720Z,3.33
2022-08-05T17:17:06.727Z,3.43
2022-08-05T17:19:43.782Z,6.67
2022-08-05T17:22:17.907Z,8.10
2022-08-05T17:24:57.025Z,4.90
2022-08-05T17:27:26.086Z,5.40
2022-08-05T17:29:59.606Z,7.70
2022-08-05T17:32:28.750Z,6.90
2022-08-05T17:34:58.278Z,3.27
2022-08-05T17:37:35.932Z,6.33
2022-08-05T17:40:12.152Z,5.63
2022-08-05T17:42:41.776Z,4.50
2022-08-05T17:45:20.782Z,2.73
2022-08-05T17:47:53.853Z,3.47
2022-08-05T17:50:28.715Z,3.77
2022-08-05T17:52:58.669Z,2.70
2022-08-05T17:55:27.448Z,7.53
2022-08-05T17:58:03.417Z,3.20
2022-08-05T18:00:32.793Z,4.70
2022-08-05T18:03:00.383Z,2.87
2022-08-05T18:05:28.364Z,3.00
2022-08-05T18:08:03.456Z,3.67
2022-08-05T18:10:32.108Z,3.97
2022-08-05T18:13:01.969Z,4.23
2022-08-05T18:15:38.764Z,5.93
2022-08-05T18:18:11.207Z,2.50
2022-08-05T18:20:39.694Z,2.40
2022-08-05T18:23:11.299Z,2.93
2022-08-05T18:25:45.355Z,4.63
2022-08-05T18:28:16.437Z,3.40
2022-08-05T18:30:50.848Z,3.30
2022-08-05T18:33:24.172Z,4.13
2022-08-05T18:36:03.261Z,3.90
2022-08-05T18:38:34.801Z,3.60
2022-08-05T18:42:00.728Z,3.70
2022-08-05T18:43:51.735Z,3.57
2022-08-05T18:46:21.343Z,5.37
2022-08-05T18:48:54.472Z,2.00
2022-08-05T18:52:05.668Z,2.23
2022-08-05T18:54:27.643Z,2.70
2022-08-05T18:56:59.685Z,3.13
2022-08-05T18:59:43.864Z,2.60
2022-08-05T19:02:26.501Z,2.40
2022-08-05T19:05:03.030Z,3.50
2022-08-05T19:07:46.133Z,2.17
2022-08-05T19:10:14.550Z,3.00
2022-08-05T19:12:43.200Z,2.20
2022-08-05T19:15:57.388Z,2.20
2022-08-05T19:18:09.531Z,2.73
2022-08-05T19:20:41.107Z,2.10
2022-08-05T19:24:03.879Z,2.47
2022-08-05T19:26:02.136Z,2.03
2022-08-05T19:28:30.535Z,4.40
2022-08-05T19:30:58.161Z,2.20
2022-08-05T19:33:35.749Z,6.00
2022-08-05T19:36:05.992Z,5.33
2022-08-05T19:38:35.874Z,2.60
2022-08-05T19:41:07.421Z,2.30
2022-08-05T19:44:06.134Z,2.97
2022-08-05T19:46:29.446Z,2.97
2022-08-05T19:49:03.209Z,3.20
2022-08-05T19:52:04.589Z,2.10
2022-08-05T19:54:26.744Z,2.60
2022-08-05T19:56:59.009Z,1.90
2022-08-05T19:59:55.577Z,2.20
2022-08-05T20:02:15.072Z,3.80
2022-08-05T20:04:48.427Z,2.90
2022-08-05T20:07:48.522Z,2.23
2022-08-05T20:10:11.422Z,2.07
2022-08-05T20:12:47.760Z,2.67
2022-08-05T20:15:23.354Z,3.00
2022-08-05T20:18:10.892Z,3.00
2022-08-05T20:20:55.201Z,2.53
2022-08-05T20:23:39.585Z,3.97
2022-08-05T20:26:16.313Z,3.37
2022-08-05T20:28:45.350Z,5.00
2022-08-05T20:31:13.021Z,5.33
2022-08-05T20:33:42.434Z,2.97
2022-08-05T20:36:11.955Z,8.37
2022-08-05T20:38:54.198Z,4.20
2022-08-05T20:41:27.082Z,3.70
2022-08-05T20:44:17.111Z,3.40
2022-08-05T20:46:47.445Z,2.50
2022-08-05T20:49:15.152Z,2.87
2022-08-05T20:51:54.008Z,2.20
2022-08-05T20:54:21.939Z,3.10
2022-08-05T20:56:49.815Z,2.57
2022-08-05T20:59:19.283Z,3.67
2022-08-05T21:01:57.264Z,6.63
2022-08-05T21:04:27.051Z,4.23
2022-08-05T21:06:59.178Z,2.97
2022-08-05T21:09:28.079Z,6.37
2022-08-05T21:12:10.319Z,3.50
2022-08-05T21:14:39.707Z,2.20
2022-08-05T21:17:07.423Z,4.17
2022-08-05T21:19:46.390Z,4.33
2022-08-05T21:22:21.706Z,5.53
2022-08-05T21:24:54.257Z,2.83
2022-08-05T21:27:27.253Z,2.83
2022-08-05T21:29:58.495Z,3.23
2022-08-05T21:32:29.943Z,3.63
2022-08-05T21:35:18.068Z,3.10
2022-08-05T21:37:52.886Z,3.30
2022-08-05T21:40:21.482Z,2.90
2022-08-05T21:42:53.790Z,2.47
2022-08-05T21:45:24.206Z,3.80
2022-08-05T21:47:56.172Z,8.70
2022-08-05T21:50:26.280Z,2.57
2022-08-05T21:52:58.728Z,9.83
2022-08-05T21:56:01.197Z,7.93
2022-08-05T21:58:15.390Z,3.00
2022-08-05T22:00:51.030Z,2.50
2022-08-05T22:03:20.621Z,3.17
2022-08-05T22:06:08.461Z,4.20
2022-08-05T22:08:42.555Z,3.63
2022-08-05T22:11:12.026Z,4.50
2022-08-05T22:14:31.220Z,3.80
2022-08-05T22:16:51.019Z,3.03
2022-08-05T22:20:01.701Z,3.00
2022-08-05T22:22:15.619Z,2.97
2022-08-05T22:25:02.680Z,4.73
2022-08-05T22:28:08.048Z,3.00
2022-08-05T22:30:34.993Z,2.73
2022-08-05T22:33:03.434Z,3.50
2022-08-05T22:35:47.908Z,2.97
2022-08-05T22:38:16.036Z,2.60
2022-08-05T22:40:49.546Z,3.37
2022-08-05T22:43:37.282Z,3.17
2022-08-05T22:46:13.276Z,7.27
2022-08-05T22:48:41.649Z,4.90
2022-08-05T22:51:16.127Z,3.67
2022-08-05T22:53:54.946Z,3.20
2022-08-05T22:56:30.054Z,3.83
2022-08-05T22:58:59.992Z,3.73
2022-08-05T23:02:04.756Z,2.70
2022-08-05T23:04:18.638Z,3.03
2022-08-05T23:06:47.727Z,3.00
2022-08-05T23:09:52.744Z,5.80
2022-08-05T23:12:04.837Z,2.60
2022-08-05T23:14:33.680Z,4.87
2022-08-05T23:17:23.984Z,3.37
2022-08-05T23:19:56.170Z,3.30
2022-08-05T23:22:27.732Z,4.57
2022-08-05T23:24:55.518Z,3.60
2022-08-05T23:27:25.361Z,3.43
2022-08-05T23:30:00.768Z,6.10
2022-08-05T23:32:28.740Z,5.33
2022-08-05T23:34:56.865Z,3.60
2022-08-05T23:37:24.455Z,4.23
2022-08-05T23:39:55.035Z,3.87
2022-08-05T23:42:29.700Z,3.77
2022-08-05T23:44:57.761Z,3.20
2022-08-05T23:47:25.467Z,2.70
2022-08-05T23:49:55.744Z,2.93
2022-08-05T23:52:36.074Z,3.67
2022-08-05T23:55:16.421Z,3.40
2022-08-05T23:57:48.927Z,3.87
